sensor_id;sensor_type;location;lat;lon;timestamp;P1;durP1;ratioP1;P2;durP2;ratioP2
38379;SDS011;38377;47.418;18.882;2022-12-29T00:02:23;23.63;;;15.07;;
38379;SDS011;38377;47.418;18.882;2022-12-29T00:04:49;22.80;;;14.53;;
38379;SDS011;38377;47.418;18.882;2022-12-29T00:07:15;25.33;;;15.10;;
38379;SDS011;38377;47.418;18.882;2022-12-29T00:09:41;24.40;;;13.90;;
38379;SDS011;38377;47.418;18.882;2022-12-29T00:12:07;21.90;;;14.33;;
38379;SDS011;38377;47.418;18.882;2022-12-29T00:14:33;24.43;;;14.57;;
38379;SDS011;38377;47.418;18.882;2022-12-29T00:17:17;24.27;;;14.87;;
38379;SDS011;38377;47.418;18.882;2022-12-29T00:19:42;23.13;;;14.43;;
38379;SDS011;38377;47.418;18.882;2022-12-29T00:22:26;25.67;;;14.17;;
38379;SDS011;38377;47.418;18.882;2022-12-29T00:25:11;26.63;;;17.37;;
38379;SDS011;38377;47.418;18.882;2022-12-29T00:27:56;24.30;;;16.00;;
38379;SDS011;38377;47.418;18.882;2022-12-29T00:30:40;23.90;;;14.93;;
38379;SDS011;38377;47.418;18.882;2022-12-29T00:33:30;24.33;;;15.90;;
38379;SDS011;38377;47.418;18.882;2022-12-29T00:36:17;24.20;;;15.57;;
38379;SDS011;38377;47.418;18.882;2022-12-29T00:38:48;25.52;;;15.52;;
38379;SDS011;38377;47.418;18.882;2022-12-29T00:42:03;25.07;;;15.60;;
38379;SDS011;38377;47.418;18.882;2022-12-29T00:44:48;28.23;;;15.60;;
38379;SDS011;38377;47.418;18.882;2022-12-29T00:47:14;24.23;;;15.93;;
38379;SDS011;38377;47.418;18.882;2022-12-29T00:49:39;24.67;;;16.50;;
38379;SDS011;38377;47.418;18.882;2022-12-29T00:52:06;23.77;;;15.53;;
38379;SDS011;38377;47.418;18.882;2022-12-29T00:54:34;23.83;;;15.80;;
38379;SDS011;38377;47.418;18.882;2022-12-29T00:57:02;26.53;;;16.80;;
38379;SDS011;38377;47.418;18.882;2022-12-29T00:59:29;25.90;;;16.67;;
38379;SDS011;38377;47.418;18.882;2022-12-29T01:01:55;21.43;;;15.77;;
38379;SDS011;38377;47.418;18.882;2022-12-29T01:04:22;24.70;;;15.27;;
38379;SDS011;38377;47.418;18.882;2022-12-29T01:06:49;25.53;;;16.10;;
38379;SDS011;38377;47.418;18.882;2022-12-29T01:09:15;26.63;;;16.07;;
38379;SDS011;38377;47.418;18.882;2022-12-29T01:12:01;26.33;;;16.53;;
38379;SDS011;38377;47.418;18.882;2022-12-29T01:14:27;24.03;;;15.20;;
38379;SDS011;38377;47.418;18.882;2022-12-29T01:16:53;24.17;;;15.17;;
38379;SDS011;38377;47.418;18.882;2022-12-29T01:19:19;24.53;;;15.43;;
38379;SDS011;38377;47.418;18.882;2022-12-29T01:21:45;26.63;;;16.07;;
38379;SDS011;38377;47.418;18.882;2022-12-29T01:24:12;22.73;;;15.23;;
38379;SDS011;38377;47.418;18.882;2022-12-29T01:26:38;28.03;;;15.97;;
38379;SDS011;38377;47.418;18.882;2022-12-29T01:29:04;24.90;;;15.57;;
38379;SDS011;38377;47.418;18.882;2022-12-29T01:31:29;26.07;;;15.50;;
38379;SDS011;38377;47.418;18.882;2022-12-29T01:33:55;29.77;;;17.57;;
38379;SDS011;38377;47.418;18.882;2022-12-29T01:36:20;23.47;;;16.20;;
38379;SDS011;38377;47.418;18.882;2022-12-29T01:38:46;23.73;;;15.67;;
38379;SDS011;38377;47.418;18.882;2022-12-29T01:41:13;25.53;;;16.50;;
38379;SDS011;38377;47.418;18.882;2022-12-29T01:49:13;27.10;;;17.13;;
38379;SDS011;38377;47.418;18.882;2022-12-29T01:54:16;29.47;;;17.00;;
38379;SDS011;38377;47.418;18.882;2022-12-29T01:56:58;28.47;;;18.77;;
38379;SDS011;38377;47.418;18.882;2022-12-29T01:59:38;29.77;;;16.93;;
38379;SDS011;38377;47.418;18.882;2022-12-29T02:02:08;28.75;;;17.77;;
38379;SDS011;38377;47.418;18.882;2022-12-29T02:04:34;24.73;;;15.90;;
38379;SDS011;38377;47.418;18.882;2022-12-29T02:07:07;25.52;;;15.77;;
38379;SDS011;38377;47.418;18.882;2022-12-29T02:09:36;29.53;;;16.97;;
38379;SDS011;38377;47.418;18.882;2022-12-29T02:12:02;27.80;;;17.23;;
38379;SDS011;38377;47.418;18.882;2022-12-29T02:14:28;28.00;;;17.53;;
38379;SDS011;38377;47.418;18.882;2022-12-29T02:17:16;26.80;;;17.53;;
38379;SDS011;38377;47.418;18.882;2022-12-29T02:22:27;26.50;;;16.13;;
38379;SDS011;38377;47.418;18.882;2022-12-29T02:38:25;27.20;;;17.25;;
38379;SDS011;38377;47.418;18.882;2022-12-29T02:41:14;26.10;;;16.17;;
38379;SDS011;38377;47.418;18.882;2022-12-29T02:46:45;28.30;;;16.90;;
38379;SDS011;38377;47.418;18.882;2022-12-29T02:49:20;30.43;;;16.73;;
38379;SDS011;38377;47.418;18.882;2022-12-29T02:54:35;28.07;;;15.67;;
38379;SDS011;38377;47.418;18.882;2022-12-29T02:57:12;25.73;;;15.57;;
38379;SDS011;38377;47.418;18.882;2022-12-29T02:59:38;20.25;;;12.52;;
38379;SDS011;38377;47.418;18.882;2022-12-29T03:13:36;24.07;;;14.20;;
38379;SDS011;38377;47.418;18.882;2022-12-29T03:16:24;22.67;;;14.97;;
38379;SDS011;38377;47.418;18.882;2022-12-29T03:21:50;25.30;;;16.13;;
38379;SDS011;38377;47.418;18.882;2022-12-29T03:24:46;27.97;;;16.07;;
38379;SDS011;38377;47.418;18.882;2022-12-29T03:29:47;27.52;;;18.17;;
38379;SDS011;38377;47.418;18.882;2022-12-29T03:32:23;32.53;;;20.50;;
38379;SDS011;38377;47.418;18.882;2022-12-29T03:34:53;33.40;;;20.70;;
38379;SDS011;38377;47.418;18.882;2022-12-29T03:37:24;34.13;;;20.47;;
38379;SDS011;38377;47.418;18.882;2022-12-29T03:39:54;31.80;;;18.90;;
38379;SDS011;38377;47.418;18.882;2022-12-29T03:42:21;35.73;;;21.10;;
38379;SDS011;38377;47.418;18.882;2022-12-29T03:44:52;33.23;;;20.63;;
38379;SDS011;38377;47.418;18.882;2022-12-29T03:47:21;34.30;;;20.20;;
38379;SDS011;38377;47.418;18.882;2022-12-29T03:49:46;33.47;;;19.37;;
38379;SDS011;38377;47.418;18.882;2022-12-29T03:52:13;30.87;;;18.83;;
38379;SDS011;38377;47.418;18.882;2022-12-29T03:54:39;28.80;;;19.00;;
38379;SDS011;38377;47.418;18.882;2022-12-29T03:57:04;29.87;;;18.50;;
38379;SDS011;38377;47.418;18.882;2022-12-29T03:59:30;30.27;;;18.77;;
38379;SDS011;38377;47.418;18.882;2022-12-29T04:01:56;30.20;;;19.77;;
38379;SDS011;38377;47.418;18.882;2022-12-29T04:04:21;29.00;;;19.57;;
38379;SDS011;38377;47.418;18.882;2022-12-29T04:06:47;36.93;;;19.23;;
38379;SDS011;38377;47.418;18.882;2022-12-29T04:09:13;29.03;;;17.63;;
38379;SDS011;38377;47.418;18.882;2022-12-29T04:11:38;31.67;;;18.70;;
38379;SDS011;38377;47.418;18.882;2022-12-29T04:14:04;30.20;;;18.83;;
38379;SDS011;38377;47.418;18.882;2022-12-29T04:16:30;35.77;;;19.17;;
38379;SDS011;38377;47.418;18.882;2022-12-29T04:18:56;29.30;;;17.70;;
38379;SDS011;38377;47.418;18.882;2022-12-29T04:21:21;29.70;;;19.30;;
38379;SDS011;38377;47.418;18.882;2022-12-29T04:23:47;30.37;;;18.40;;
38379;SDS011;38377;47.418;18.882;2022-12-29T04:26:12;25.27;;;17.77;;
38379;SDS011;38377;47.418;18.882;2022-12-29T04:28:38;30.10;;;19.23;;
38379;SDS011;38377;47.418;18.882;2022-12-29T04:31:04;31.27;;;18.40;;
38379;SDS011;38377;47.418;18.882;2022-12-29T04:33:30;29.23;;;18.60;;
38379;SDS011;38377;47.418;18.882;2022-12-29T04:35:56;32.70;;;20.40;;
38379;SDS011;38377;47.418;18.882;2022-12-29T04:38:22;32.57;;;19.73;;
38379;SDS011;38377;47.418;18.882;2022-12-29T04:40:48;32.43;;;19.83;;
38379;SDS011;38377;47.418;18.882;2022-12-29T04:43:15;28.57;;;18.13;;
38379;SDS011;38377;47.418;18.882;2022-12-29T04:45:45;28.87;;;18.80;;
38379;SDS011;38377;47.418;18.882;2022-12-29T04:48:11;33.63;;;20.50;;
38379;SDS011;38377;47.418;18.882;2022-12-29T04:50:38;28.30;;;17.97;;
38379;SDS011;38377;47.418;18.882;2022-12-29T04:53:04;29.43;;;17.87;;
38379;SDS011;38377;47.418;18.882;2022-12-29T04:55:30;29.80;;;18.47;;
38379;SDS011;38377;47.418;18.882;2022-12-29T04:57:56;26.93;;;18.20;;
38379;SDS011;38377;47.418;18.882;2022-12-29T05:00:21;26.73;;;17.80;;
38379;SDS011;38377;47.418;18.882;2022-12-29T05:02:47;26.00;;;17.63;;
38379;SDS011;38377;47.418;18.882;2022-12-29T05:05:13;27.77;;;17.80;;
38379;SDS011;38377;47.418;18.882;2022-12-29T05:07:39;26.10;;;17.57;;
38379;SDS011;38377;47.418;18.882;2022-12-29T05:10:04;28.43;;;17.80;;
38379;SDS011;38377;47.418;18.882;2022-12-29T05:12:31;26.87;;;17.43;;
38379;SDS011;38377;47.418;18.882;2022-12-29T05:14:57;30.07;;;19.23;;
38379;SDS011;38377;47.418;18.882;2022-12-29T05:17:23;30.13;;;19.43;;
38379;SDS011;38377;47.418;18.882;2022-12-29T05:19:49;32.70;;;19.53;;
38379;SDS011;38377;47.418;18.882;2022-12-29T05:22:15;33.53;;;20.07;;
38379;SDS011;38377;47.418;18.882;2022-12-29T05:24:40;30.60;;;18.47;;
38379;SDS011;38377;47.418;18.882;2022-12-29T05:27:06;31.97;;;19.67;;
38379;SDS011;38377;47.418;18.882;2022-12-29T05:29:32;32.70;;;19.93;;
38379;SDS011;38377;47.418;18.882;2022-12-29T05:31:57;30.90;;;19.43;;
38379;SDS011;38377;47.418;18.882;2022-12-29T05:34:23;33.73;;;20.40;;
38379;SDS011;38377;47.418;18.882;2022-12-29T05:36:49;30.40;;;18.73;;
38379;SDS011;38377;47.418;18.882;2022-12-29T05:39:14;31.90;;;19.63;;
38379;SDS011;38377;47.418;18.882;2022-12-29T05:41:40;33.63;;;20.80;;
38379;SDS011;38377;47.418;18.882;2022-12-29T05:44:06;30.73;;;19.10;;
38379;SDS011;38377;47.418;18.882;2022-12-29T05:46:31;33.00;;;21.93;;
38379;SDS011;38377;47.418;18.882;2022-12-29T05:48:57;33.73;;;20.37;;
38379;SDS011;38377;47.418;18.882;2022-12-29T05:51:23;31.67;;;20.37;;
38379;SDS011;38377;47.418;18.882;2022-12-29T05:53:49;36.13;;;20.43;;
38379;SDS011;38377;47.418;18.882;2022-12-29T05:56:14;32.90;;;21.03;;
38379;SDS011;38377;47.418;18.882;2022-12-29T05:58:40;32.93;;;19.30;;
38379;SDS011;38377;47.418;18.882;2022-12-29T06:01:06;33.40;;;20.37;;
38379;SDS011;38377;47.418;18.882;2022-12-29T06:03:31;35.50;;;20.60;;
38379;SDS011;38377;47.418;18.882;2022-12-29T06:05:57;32.07;;;20.03;;
38379;SDS011;38377;47.418;18.882;2022-12-29T06:08:23;35.07;;;21.67;;
38379;SDS011;38377;47.418;18.882;2022-12-29T06:10:49;37.63;;;22.13;;
38379;SDS011;38377;47.418;18.882;2022-12-29T06:13:15;43.57;;;24.83;;
38379;SDS011;38377;47.418;18.882;2022-12-29T06:15:41;32.50;;;23.30;;
38379;SDS011;38377;47.418;18.882;2022-12-29T06:18:06;41.53;;;24.40;;
38379;SDS011;38377;47.418;18.882;2022-12-29T06:20:32;40.33;;;23.00;;
38379;SDS011;38377;47.418;18.882;2022-12-29T06:22:58;31.83;;;22.00;;
38379;SDS011;38377;47.418;18.882;2022-12-29T06:25:24;34.30;;;21.53;;
38379;SDS011;38377;47.418;18.882;2022-12-29T06:27:49;37.83;;;23.50;;
38379;SDS011;38377;47.418;18.882;2022-12-29T06:30:15;37.27;;;23.50;;
38379;SDS011;38377;47.418;18.882;2022-12-29T06:32:42;36.30;;;23.40;;
38379;SDS011;38377;47.418;18.882;2022-12-29T06:35:08;35.90;;;22.33;;
38379;SDS011;38377;47.418;18.882;2022-12-29T06:37:34;34.07;;;23.67;;
38379;SDS011;38377;47.418;18.882;2022-12-29T06:39:59;37.33;;;23.33;;
38379;SDS011;38377;47.418;18.882;2022-12-29T06:42:25;40.37;;;23.10;;
38379;SDS011;38377;47.418;18.882;2022-12-29T06:44:51;45.30;;;23.63;;
38379;SDS011;38377;47.418;18.882;2022-12-29T06:47:17;42.10;;;23.60;;
38379;SDS011;38377;47.418;18.882;2022-12-29T06:49:43;40.80;;;24.17;;
38379;SDS011;38377;47.418;18.882;2022-12-29T06:52:09;39.73;;;23.40;;
38379;SDS011;38377;47.418;18.882;2022-12-29T06:54:35;50.20;;;24.97;;
38379;SDS011;38377;47.418;18.882;2022-12-29T06:57:01;39.60;;;23.33;;
38379;SDS011;38377;47.418;18.882;2022-12-29T06:59:27;32.53;;;22.10;;
38379;SDS011;38377;47.418;18.882;2022-12-29T07:01:55;36.53;;;22.77;;
38379;SDS011;38377;47.418;18.882;2022-12-29T07:04:20;42.53;;;23.33;;
38379;SDS011;38377;47.418;18.882;2022-12-29T07:06:46;37.50;;;22.90;;
38379;SDS011;38377;47.418;18.882;2022-12-29T07:09:12;34.63;;;22.87;;
38379;SDS011;38377;47.418;18.882;2022-12-29T07:11:38;36.53;;;23.87;;
38379;SDS011;38377;47.418;18.882;2022-12-29T07:14:03;40.97;;;24.27;;
38379;SDS011;38377;47.418;18.882;2022-12-29T07:16:29;34.23;;;22.83;;
38379;SDS011;38377;47.418;18.882;2022-12-29T07:18:56;45.53;;;24.73;;
38379;SDS011;38377;47.418;18.882;2022-12-29T07:21:24;40.30;;;22.57;;
38379;SDS011;38377;47.418;18.882;2022-12-29T07:23:49;38.40;;;24.43;;
38379;SDS011;38377;47.418;18.882;2022-12-29T07:26:15;40.53;;;23.60;;
38379;SDS011;38377;47.418;18.882;2022-12-29T07:28:43;36.10;;;22.90;;
38379;SDS011;38377;47.418;18.882;2022-12-29T07:31:15;36.33;;;23.53;;
38379;SDS011;38377;47.418;18.882;2022-12-29T07:33:43;34.00;;;22.97;;
38379;SDS011;38377;47.418;18.882;2022-12-29T07:36:10;38.63;;;23.77;;
38379;SDS011;38377;47.418;18.882;2022-12-29T07:38:36;37.97;;;23.47;;
38379;SDS011;38377;47.418;18.882;2022-12-29T07:41:02;37.50;;;23.20;;
38379;SDS011;38377;47.418;18.882;2022-12-29T07:43:27;40.47;;;23.70;;
38379;SDS011;38377;47.418;18.882;2022-12-29T07:45:53;32.93;;;21.80;;
38379;SDS011;38377;47.418;18.882;2022-12-29T07:48:19;35.67;;;22.67;;
38379;SDS011;38377;47.418;18.882;2022-12-29T07:50:45;37.43;;;25.00;;
38379;SDS011;38377;47.418;18.882;2022-12-29T07:53:10;36.10;;;23.67;;
38379;SDS011;38377;47.418;18.882;2022-12-29T07:55:36;32.87;;;22.40;;
38379;SDS011;38377;47.418;18.882;2022-12-29T07:58:02;34.80;;;23.33;;
38379;SDS011;38377;47.418;18.882;2022-12-29T08:00:28;55.77;;;28.97;;
38379;SDS011;38377;47.418;18.882;2022-12-29T08:02:54;37.20;;;22.93;;
38379;SDS011;38377;47.418;18.882;2022-12-29T08:05:19;34.80;;;22.33;;
38379;SDS011;38377;47.418;18.882;2022-12-29T08:07:45;38.77;;;23.40;;
38379;SDS011;38377;47.418;18.882;2022-12-29T08:10:12;40.50;;;25.47;;
38379;SDS011;38377;47.418;18.882;2022-12-29T08:12:38;30.90;;;22.13;;
38379;SDS011;38377;47.418;18.882;2022-12-29T08:15:05;36.57;;;23.10;;
38379;SDS011;38377;47.418;18.882;2022-12-29T08:17:31;36.00;;;22.43;;
38379;SDS011;38377;47.418;18.882;2022-12-29T08:19:57;37.23;;;22.87;;
38379;SDS011;38377;47.418;18.882;2022-12-29T08:22:23;35.13;;;22.27;;
38379;SDS011;38377;47.418;18.882;2022-12-29T08:24:49;39.27;;;24.13;;
38379;SDS011;38377;47.418;18.882;2022-12-29T08:27:14;32.67;;;21.43;;
38379;SDS011;38377;47.418;18.882;2022-12-29T08:29:40;32.97;;;22.93;;
38379;SDS011;38377;47.418;18.882;2022-12-29T08:32:06;37.57;;;23.97;;
38379;SDS011;38377;47.418;18.882;2022-12-29T08:34:32;36.40;;;23.63;;
38379;SDS011;38377;47.418;18.882;2022-12-29T08:36:58;44.73;;;24.53;;
38379;SDS011;38377;47.418;18.882;2022-12-29T08:39:24;37.10;;;22.77;;
38379;SDS011;38377;47.418;18.882;2022-12-29T08:41:49;35.07;;;23.87;;
38379;SDS011;38377;47.418;18.882;2022-12-29T08:44:15;38.53;;;24.43;;
38379;SDS011;38377;47.418;18.882;2022-12-29T08:46:41;34.87;;;24.23;;
38379;SDS011;38377;47.418;18.882;2022-12-29T08:49:07;36.37;;;23.47;;
38379;SDS011;38377;47.418;18.882;2022-12-29T08:51:32;39.67;;;25.90;;
38379;SDS011;38377;47.418;18.882;2022-12-29T08:53:58;40.40;;;25.60;;
38379;SDS011;38377;47.418;18.882;2022-12-29T08:56:24;38.57;;;26.43;;
38379;SDS011;38377;47.418;18.882;2022-12-29T08:58:51;32.67;;;22.37;;
38379;SDS011;38377;47.418;18.882;2022-12-29T09:01:17;34.70;;;24.90;;
38379;SDS011;38377;47.418;18.882;2022-12-29T09:03:43;46.33;;;26.67;;
38379;SDS011;38377;47.418;18.882;2022-12-29T09:06:09;34.70;;;22.60;;
38379;SDS011;38377;47.418;18.882;2022-12-29T09:08:35;39.23;;;24.57;;
38379;SDS011;38377;47.418;18.882;2022-12-29T09:11:07;37.83;;;24.27;;
38379;SDS011;38377;47.418;18.882;2022-12-29T09:13:35;39.23;;;24.77;;
38379;SDS011;38377;47.418;18.882;2022-12-29T09:16:01;42.17;;;26.53;;
38379;SDS011;38377;47.418;18.882;2022-12-29T09:18:27;51.37;;;30.27;;
38379;SDS011;38377;47.418;18.882;2022-12-29T09:20:57;49.67;;;27.53;;
38379;SDS011;38377;47.418;18.882;2022-12-29T09:23:23;45.53;;;25.73;;
38379;SDS011;38377;47.418;18.882;2022-12-29T09:25:49;43.00;;;26.13;;
38379;SDS011;38377;47.418;18.882;2022-12-29T09:28:15;35.73;;;24.27;;
38379;SDS011;38377;47.418;18.882;2022-12-29T09:30:41;41.27;;;24.67;;
38379;SDS011;38377;47.418;18.882;2022-12-29T09:33:07;33.73;;;22.63;;
38379;SDS011;38377;47.418;18.882;2022-12-29T09:35:33;38.23;;;24.47;;
38379;SDS011;38377;47.418;18.882;2022-12-29T09:37:58;37.33;;;24.93;;
38379;SDS011;38377;47.418;18.882;2022-12-29T09:45:49;38.00;;;23.73;;
38379;SDS011;38377;47.418;18.882;2022-12-29T09:48:37;37.53;;;23.90;;
38379;SDS011;38377;47.418;18.882;2022-12-29T09:51:11;35.13;;;24.57;;
38379;SDS011;38377;47.418;18.882;2022-12-29T09:53:58;35.93;;;24.30;;
38379;SDS011;38377;47.418;18.882;2022-12-29T09:56:28;36.83;;;23.87;;
38379;SDS011;38377;47.418;18.882;2022-12-29T09:58:59;35.23;;;22.67;;
38379;SDS011;38377;47.418;18.882;2022-12-29T10:01:33;42.77;;;25.20;;
38379;SDS011;38377;47.418;18.882;2022-12-29T10:04:07;34.90;;;24.37;;
38379;SDS011;38377;47.418;18.882;2022-12-29T10:06:36;37.57;;;25.20;;
38379;SDS011;38377;47.418;18.882;2022-12-29T10:09:17;39.77;;;25.23;;
38379;SDS011;38377;47.418;18.882;2022-12-29T10:12:02;38.47;;;25.30;;
38379;SDS011;38377;47.418;18.882;2022-12-29T10:23:10;40.83;;;26.10;;
38379;SDS011;38377;47.418;18.882;2022-12-29T10:25:45;37.30;;;24.40;;
38379;SDS011;38377;47.418;18.882;2022-12-29T10:28:56;38.47;;;24.70;;
38379;SDS011;38377;47.418;18.882;2022-12-29T10:31:09;38.87;;;25.03;;
38379;SDS011;38377;47.418;18.882;2022-12-29T10:34:01;36.07;;;24.17;;
38379;SDS011;38377;47.418;18.882;2022-12-29T10:36:38;35.10;;;23.40;;
38379;SDS011;38377;47.418;18.882;2022-12-29T10:41:49;39.37;;;25.83;;
38379;SDS011;38377;47.418;18.882;2022-12-29T10:44:20;35.97;;;24.23;;
38379;SDS011;38377;47.418;18.882;2022-12-29T10:46:55;33.47;;;22.63;;
38379;SDS011;38377;47.418;18.882;2022-12-29T10:49:26;31.50;;;23.53;;
38379;SDS011;38377;47.418;18.882;2022-12-29T10:51:54;37.90;;;24.73;;
38379;SDS011;38377;47.418;18.882;2022-12-29T10:54:26;35.90;;;24.83;;
38379;SDS011;38377;47.418;18.882;2022-12-29T10:57:05;39.77;;;23.87;;
38379;SDS011;38377;47.418;18.882;2022-12-29T10:59:38;38.57;;;26.07;;
38379;SDS011;38377;47.418;18.882;2022-12-29T11:07:27;39.33;;;24.45;;
38379;SDS011;38377;47.418;18.882;2022-12-29T11:09:55;34.37;;;24.47;;
38379;SDS011;38377;47.418;18.882;2022-12-29T11:12:40;33.77;;;24.60;;
38379;SDS011;38377;47.418;18.882;2022-12-29T11:17:47;35.23;;;24.83;;
38379;SDS011;38377;47.418;18.882;2022-12-29T11:20:37;36.67;;;25.50;;
38379;SDS011;38377;47.418;18.882;2022-12-29T11:23:04;36.17;;;23.77;;
38379;SDS011;38377;47.418;18.882;2022-12-29T11:25:46;36.40;;;23.73;;
38379;SDS011;38377;47.418;18.882;2022-12-29T11:28:32;38.73;;;25.57;;
38379;SDS011;38377;47.418;18.882;2022-12-29T11:31:02;34.73;;;23.57;;
38379;SDS011;38377;47.418;18.882;2022-12-29T11:33:29;41.53;;;25.05;;
38379;SDS011;38377;47.418;18.882;2022-12-29T11:36:04;37.10;;;24.73;;
38379;SDS011;38377;47.418;18.882;2022-12-29T11:38:39;44.50;;;25.27;;
38379;SDS011;38377;47.418;18.882;2022-12-29T11:41:13;33.10;;;23.67;;
38379;SDS011;38377;47.418;18.882;2022-12-29T11:43:56;39.53;;;25.57;;
38379;SDS011;38377;47.418;18.882;2022-12-29T11:46:28;35.37;;;25.53;;
38379;SDS011;38377;47.418;18.882;2022-12-29T11:48:59;37.03;;;25.63;;
38379;SDS011;38377;47.418;18.882;2022-12-29T11:51:30;36.57;;;25.07;;
38379;SDS011;38377;47.418;18.882;2022-12-29T11:54:09;37.13;;;24.37;;
38379;SDS011;38377;47.418;18.882;2022-12-29T11:56:43;36.90;;;25.03;;
38379;SDS011;38377;47.418;18.882;2022-12-29T12:04:51;37.70;;;25.97;;
38379;SDS011;38377;47.418;18.882;2022-12-29T12:07:33;41.03;;;27.20;;
38379;SDS011;38377;47.418;18.882;2022-12-29T12:10:13;38.97;;;25.27;;
38379;SDS011;38377;47.418;18.882;2022-12-29T12:13:31;39.23;;;25.97;;
38379;SDS011;38377;47.418;18.882;2022-12-29T12:15:43;38.10;;;25.60;;
38379;SDS011;38377;47.418;18.882;2022-12-29T12:18:36;35.37;;;25.77;;
38379;SDS011;38377;47.418;18.882;2022-12-29T12:21:14;40.33;;;26.67;;
38379;SDS011;38377;47.418;18.882;2022-12-29T12:23:57;37.60;;;26.57;;
38379;SDS011;38377;47.418;18.882;2022-12-29T12:29:39;41.53;;;27.67;;
38379;SDS011;38377;47.418;18.882;2022-12-29T12:34:55;35.17;;;23.73;;
38379;SDS011;38377;47.418;18.882;2022-12-29T12:43:11;52.67;;;32.67;;
38379;SDS011;38377;47.418;18.882;2022-12-29T12:46:17;37.50;;;23.50;;
38379;SDS011;38377;47.418;18.882;2022-12-29T12:51:43;50.27;;;31.57;;
38379;SDS011;38377;47.418;18.882;2022-12-29T13:00:16;39.77;;;28.33;;
38379;SDS011;38377;47.418;18.882;2022-12-29T13:02:48;39.80;;;28.47;;
38379;SDS011;38377;47.418;18.882;2022-12-29T13:19:47;40.00;;;29.00;;
38379;SDS011;38377;47.418;18.882;2022-12-29T13:28:02;43.00;;;29.53;;
38379;SDS011;38377;47.418;18.882;2022-12-29T13:38:43;42.47;;;28.23;;
38379;SDS011;38377;47.418;18.882;2022-12-29T13:41:39;42.13;;;29.40;;
38379;SDS011;38377;47.418;18.882;2022-12-29T13:44:09;47.67;;;32.43;;
38379;SDS011;38377;47.418;18.882;2022-12-29T13:46:42;44.23;;;28.53;;
38379;SDS011;38377;47.418;18.882;2022-12-29T13:51:48;41.43;;;29.33;;
38379;SDS011;38377;47.418;18.882;2022-12-29T13:57:31;45.83;;;32.50;;
38379;SDS011;38377;47.418;18.882;2022-12-29T14:00:15;44.77;;;31.27;;
38379;SDS011;38377;47.418;18.882;2022-12-29T14:07:43;44.30;;;30.27;;
38379;SDS011;38377;47.418;18.882;2022-12-29T14:10:45;46.77;;;31.63;;
38379;SDS011;38377;47.418;18.882;2022-12-29T14:13:13;48.77;;;33.60;;
38379;SDS011;38377;47.418;18.882;2022-12-29T14:15:43;50.47;;;30.83;;
38379;SDS011;38377;47.418;18.882;2022-12-29T14:18:16;48.97;;;32.70;;
38379;SDS011;38377;47.418;18.882;2022-12-29T14:20:54;48.33;;;31.57;;
38379;SDS011;38377;47.418;18.882;2022-12-29T14:23:36;49.43;;;31.23;;
38379;SDS011;38377;47.418;18.882;2022-12-29T14:28:36;40.27;;;29.37;;
38379;SDS011;38377;47.418;18.882;2022-12-29T14:39:04;54.23;;;33.33;;
38379;SDS011;38377;47.418;18.882;2022-12-29T14:41:58;59.87;;;35.00;;
38379;SDS011;38377;47.418;18.882;2022-12-29T14:44:55;47.43;;;31.10;;
38379;SDS011;38377;47.418;18.882;2022-12-29T14:47:34;51.33;;;32.67;;
38379;SDS011;38377;47.418;18.882;2022-12-29T14:50:20;63.03;;;36.57;;
38379;SDS011;38377;47.418;18.882;2022-12-29T14:53:04;56.20;;;34.90;;
38379;SDS011;38377;47.418;18.882;2022-12-29T14:58:22;52.40;;;34.03;;
38379;SDS011;38377;47.418;18.882;2022-12-29T15:00:51;55.20;;;34.60;;
38379;SDS011;38377;47.418;18.882;2022-12-29T15:03:19;50.33;;;32.37;;
38379;SDS011;38377;47.418;18.882;2022-12-29T15:05:47;53.07;;;35.13;;
38379;SDS011;38377;47.418;18.882;2022-12-29T15:08:38;50.83;;;31.40;;
38379;SDS011;38377;47.418;18.882;2022-12-29T15:12:12;54.60;;;35.33;;
38379;SDS011;38377;47.418;18.882;2022-12-29T15:16:55;47.20;;;32.37;;
38379;SDS011;38377;47.418;18.882;2022-12-29T15:19:22;48.37;;;32.47;;
38379;SDS011;38377;47.418;18.882;2022-12-29T15:21:48;56.77;;;35.30;;
38379;SDS011;38377;47.418;18.882;2022-12-29T15:24:14;68.00;;;38.93;;
38379;SDS011;38377;47.418;18.882;2022-12-29T15:26:42;64.37;;;38.97;;
38379;SDS011;38377;47.418;18.882;2022-12-29T15:32:01;47.13;;;32.45;;
38379;SDS011;38377;47.418;18.882;2022-12-29T15:34:46;68.53;;;38.77;;
38379;SDS011;38377;47.418;18.882;2022-12-29T15:37:16;68.10;;;40.17;;
38379;SDS011;38377;47.418;18.882;2022-12-29T15:39:44;65.13;;;40.03;;
38379;SDS011;38377;47.418;18.882;2022-12-29T15:42:16;64.00;;;38.67;;
38379;SDS011;38377;47.418;18.882;2022-12-29T15:45:05;57.57;;;37.27;;
38379;SDS011;38377;47.418;18.882;2022-12-29T15:50:22;54.43;;;35.13;;
38379;SDS011;38377;47.418;18.882;2022-12-29T15:52:50;53.33;;;35.17;;
38379;SDS011;38377;47.418;18.882;2022-12-29T15:55:18;65.87;;;38.53;;
38379;SDS011;38377;47.418;18.882;2022-12-29T15:57:59;61.67;;;36.73;;
38379;SDS011;38377;47.418;18.882;2022-12-29T16:00:27;64.73;;;39.03;;
38379;SDS011;38377;47.418;18.882;2022-12-29T16:02:58;61.13;;;37.05;;
38379;SDS011;38377;47.418;18.882;2022-12-29T16:05:36;63.97;;;37.83;;
38379;SDS011;38377;47.418;18.882;2022-12-29T16:08:03;66.70;;;38.87;;
38379;SDS011;38377;47.418;18.882;2022-12-29T16:10:49;77.70;;;41.97;;
38379;SDS011;38377;47.418;18.882;2022-12-29T16:18:34;53.17;;;33.73;;
38379;SDS011;38377;47.418;18.882;2022-12-29T16:21:03;54.53;;;33.80;;
38379;SDS011;38377;47.418;18.882;2022-12-29T16:23:30;52.30;;;33.93;;
38379;SDS011;38377;47.418;18.882;2022-12-29T16:25:57;53.30;;;33.27;;
38379;SDS011;38377;47.418;18.882;2022-12-29T16:28:24;49.87;;;34.60;;
38379;SDS011;38377;47.418;18.882;2022-12-29T16:30:59;50.00;;;32.07;;
38379;SDS011;38377;47.418;18.882;2022-12-29T16:41:58;48.23;;;31.97;;
38379;SDS011;38377;47.418;18.882;2022-12-29T16:49:29;53.00;;;33.40;;
38379;SDS011;38377;47.418;18.882;2022-12-29T16:51:56;52.53;;;33.47;;
38379;SDS011;38377;47.418;18.882;2022-12-29T16:54:33;61.87;;;37.43;;
38379;SDS011;38377;47.418;18.882;2022-12-29T16:57:01;59.20;;;37.43;;
38379;SDS011;38377;47.418;18.882;2022-12-29T16:59:30;54.67;;;34.53;;
38379;SDS011;38377;47.418;18.882;2022-12-29T17:02:00;52.73;;;33.27;;
38379;SDS011;38377;47.418;18.882;2022-12-29T17:04:32;52.20;;;35.07;;
38379;SDS011;38377;47.418;18.882;2022-12-29T17:06:57;52.43;;;35.33;;
38379;SDS011;38377;47.418;18.882;2022-12-29T17:09:24;60.73;;;36.73;;
38379;SDS011;38377;47.418;18.882;2022-12-29T17:11:52;56.17;;;35.23;;
38379;SDS011;38377;47.418;18.882;2022-12-29T17:19:39;57.27;;;37.80;;
38379;SDS011;38377;47.418;18.882;2022-12-29T17:22:13;67.93;;;39.70;;
38379;SDS011;38377;47.418;18.882;2022-12-29T17:24:41;56.53;;;34.83;;
38379;SDS011;38377;47.418;18.882;2022-12-29T17:27:09;61.70;;;36.67;;
38379;SDS011;38377;47.418;18.882;2022-12-29T17:29:48;62.97;;;37.97;;
38379;SDS011;38377;47.418;18.882;2022-12-29T17:32:15;57.77;;;35.43;;